sensor_id;sensor_type;location;lat;lon;timestamp;P1;durP1;ratioP1;P2;durP2;ratioP2
21527;SDS011;10925;49.102;-0.370;2023-04-25T00:01:58;29.15;;;9.30;;
21527;SDS011;10925;49.102;-0.370;2023-04-25T00:04:26;30.25;;;9.38;;
21527;SDS011;10925;49.102;-0.370;2023-04-25T00:06:53;25.88;;;8.30;;
21527;SDS011;10925;49.102;-0.370;2023-04-25T00:09:20;28.75;;;8.20;;
21527;SDS011;10925;49.102;-0.370;2023-04-25T00:11:47;31.42;;;9.25;;
21527;SDS011;10925;49.102;-0.370;2023-04-25T00:14:13;32.85;;;7.95;;
21527;SDS011;10925;49.102;-0.370;2023-04-25T00:16:39;22.15;;;8.07;;
21527;SDS011;10925;49.102;-0.370;2023-04-25T00:19:16;32.40;;;9.10;;
21527;SDS011;10925;49.102;-0.370;2023-04-25T00:21:41;31.30;;;9.50;;
21527;SDS011;10925;49.102;-0.370;2023-04-25T00:24:08;28.67;;;8.60;;
21527;SDS011;10925;49.102;-0.370;2023-04-25T00:26:34;36.13;;;9.30;;
21527;SDS011;10925;49.102;-0.370;2023-04-25T00:28:59;33.22;;;8.40;;
21527;SDS011;10925;49.102;-0.370;2023-04-25T00:31:26;25.70;;;7.85;;
21527;SDS011;10925;49.102;-0.370;2023-04-25T00:33:53;20.75;;;8.52;;
21527;SDS011;10925;49.102;-0.370;2023-04-25T00:36:18;25.73;;;8.23;;
21527;SDS011;10925;49.102;-0.370;2023-04-25T00:38:45;30.90;;;7.55;;
21527;SDS011;10925;49.102;-0.370;2023-04-25T00:41:12;20.45;;;7.70;;
21527;SDS011;10925;49.102;-0.370;2023-04-25T00:43:37;28.98;;;8.48;;
21527;SDS011;10925;49.102;-0.370;2023-04-25T00:46:04;17.10;;;7.70;;
21527;SDS011;10925;49.102;-0.370;2023-04-25T00:48:31;24.08;;;7.90;;
21527;SDS011;10925;49.102;-0.370;2023-04-25T00:50:59;18.27;;;7.60;;
21527;SDS011;10925;49.102;-0.370;2023-04-25T00:53:27;22.95;;;8.05;;
21527;SDS011;10925;49.102;-0.370;2023-04-25T00:58:49;20.35;;;7.28;;
21527;SDS011;10925;49.102;-0.370;2023-04-25T01:01:16;24.30;;;6.75;;
21527;SDS011;10925;49.102;-0.370;2023-04-25T01:03:43;22.58;;;7.47;;
21527;SDS011;10925;49.102;-0.370;2023-04-25T01:06:11;24.95;;;7.10;;
21527;SDS011;10925;49.102;-0.370;2023-04-25T01:08:38;27.80;;;7.22;;
21527;SDS011;10925;49.102;-0.370;2023-04-25T01:11:06;23.40;;;7.47;;
21527;SDS011;10925;49.102;-0.370;2023-04-25T01:13:33;17.45;;;6.22;;
21527;SDS011;10925;49.102;-0.370;2023-04-25T01:16:00;16.02;;;6.15;;
21527;SDS011;10925;49.102;-0.370;2023-04-25T01:18:26;18.27;;;6.20;;
21527;SDS011;10925;49.102;-0.370;2023-04-25T01:20:53;16.35;;;6.40;;
21527;SDS011;10925;49.102;-0.370;2023-04-25T01:23:21;20.73;;;6.88;;
21527;SDS011;10925;49.102;-0.370;2023-04-25T01:25:46;16.05;;;5.82;;
21527;SDS011;10925;49.102;-0.370;2023-04-25T01:28:12;20.85;;;7.18;;
21527;SDS011;10925;49.102;-0.370;2023-04-25T01:30:38;18.17;;;5.72;;
21527;SDS011;10925;49.102;-0.370;2023-04-25T01:33:04;17.75;;;6.35;;
21527;SDS011;10925;49.102;-0.370;2023-04-25T01:35:31;12.32;;;6.32;;
21527;SDS011;10925;49.102;-0.370;2023-04-25T01:37:58;17.45;;;5.65;;
21527;SDS011;10925;49.102;-0.370;2023-04-25T01:40:25;18.63;;;5.38;;
21527;SDS011;10925;49.102;-0.370;2023-04-25T01:42:52;10.48;;;5.35;;
21527;SDS011;10925;49.102;-0.370;2023-04-25T01:45:19;14.25;;;5.13;;
21527;SDS011;10925;49.102;-0.370;2023-04-25T01:47:47;13.68;;;3.90;;
21527;SDS011;10925;49.102;-0.370;2023-04-25T01:50:16;17.90;;;5.22;;
21527;SDS011;10925;49.102;-0.370;2023-04-25T01:52:44;12.98;;;4.43;;
21527;SDS011;10925;49.102;-0.370;2023-04-25T01:55:10;17.70;;;4.32;;
21527;SDS011;10925;49.102;-0.370;2023-04-25T01:57:35;12.20;;;5.22;;
21527;SDS011;10925;49.102;-0.370;2023-04-25T02:00:03;12.85;;;4.85;;
21527;SDS011;10925;49.102;-0.370;2023-04-25T02:02:38;12.52;;;4.75;;
21527;SDS011;10925;49.102;-0.370;2023-04-25T02:05:21;10.18;;;4.25;;
21527;SDS011;10925;49.102;-0.370;2023-04-25T02:07:47;11.77;;;3.88;;
21527;SDS011;10925;49.102;-0.370;2023-04-25T02:10:12;10.90;;;4.25;;
21527;SDS011;10925;49.102;-0.370;2023-04-25T02:12:38;13.48;;;4.25;;
21527;SDS011;10925;49.102;-0.370;2023-04-25T02:15:05;12.27;;;4.50;;
21527;SDS011;10925;49.102;-0.370;2023-04-25T02:17:37;10.50;;;3.92;;
21527;SDS011;10925;49.102;-0.370;2023-04-25T02:20:05;11.32;;;3.88;;
21527;SDS011;10925;49.102;-0.370;2023-04-25T02:22:32;12.23;;;3.53;;
21527;SDS011;10925;49.102;-0.370;2023-04-25T02:25:00;12.55;;;3.80;;
21527;SDS011;10925;49.102;-0.370;2023-04-25T02:27:27;13.30;;;4.47;;
21527;SDS011;10925;49.102;-0.370;2023-04-25T02:29:52;8.95;;;2.95;;
21527;SDS011;10925;49.102;-0.370;2023-04-25T02:32:18;17.75;;;4.22;;
21527;SDS011;10925;49.102;-0.370;2023-04-25T02:34:46;14.38;;;4.72;;
21527;SDS011;10925;49.102;-0.370;2023-04-25T02:37:12;16.70;;;4.15;;
21527;SDS011;10925;49.102;-0.370;2023-04-25T02:39:38;14.27;;;5.00;;
21527;SDS011;10925;49.102;-0.370;2023-04-25T02:42:05;10.73;;;3.85;;
21527;SDS011;10925;49.102;-0.370;2023-04-25T02:44:31;14.35;;;4.40;;
21527;SDS011;10925;49.102;-0.370;2023-04-25T02:46:58;13.48;;;4.00;;
21527;SDS011;10925;49.102;-0.370;2023-04-25T02:49:24;20.80;;;5.20;;
21527;SDS011;10925;49.102;-0.370;2023-04-25T02:51:51;22.13;;;5.40;;
21527;SDS011;10925;49.102;-0.370;2023-04-25T02:54:17;18.13;;;4.63;;
21527;SDS011;10925;49.102;-0.370;2023-04-25T02:56:46;12.45;;;4.25;;
21527;SDS011;10925;49.102;-0.370;2023-04-25T02:59:18;18.30;;;5.10;;
21527;SDS011;10925;49.102;-0.370;2023-04-25T03:01:43;13.00;;;5.05;;
21527;SDS011;10925;49.102;-0.370;2023-04-25T03:04:11;14.60;;;5.70;;
21527;SDS011;10925;49.102;-0.370;2023-04-25T03:06:38;14.52;;;4.47;;
21527;SDS011;10925;49.102;-0.370;2023-04-25T03:09:03;16.75;;;4.72;;
21527;SDS011;10925;49.102;-0.370;2023-04-25T03:11:31;15.23;;;4.28;;
21527;SDS011;10925;49.102;-0.370;2023-04-25T03:16:45;15.60;;;4.00;;
21527;SDS011;10925;49.102;-0.370;2023-04-25T03:19:12;14.15;;;4.88;;
21527;SDS011;10925;49.102;-0.370;2023-04-25T03:21:39;19.05;;;5.13;;
21527;SDS011;10925;49.102;-0.370;2023-04-25T03:24:05;17.05;;;4.55;;
21527;SDS011;10925;49.102;-0.370;2023-04-25T03:26:32;15.93;;;4.35;;
21527;SDS011;10925;49.102;-0.370;2023-04-25T03:28:59;14.93;;;3.13;;
21527;SDS011;10925;49.102;-0.370;2023-04-25T03:31:26;23.00;;;4.18;;
21527;SDS011;10925;49.102;-0.370;2023-04-25T03:33:51;14.18;;;3.05;;
21527;SDS011;10925;49.102;-0.370;2023-04-25T03:36:20;18.98;;;4.07;;
21527;SDS011;10925;49.102;-0.370;2023-04-25T03:38:47;16.45;;;3.72;;
21527;SDS011;10925;49.102;-0.370;2023-04-25T03:41:16;12.02;;;3.50;;
21527;SDS011;10925;49.102;-0.370;2023-04-25T03:43:50;18.00;;;3.17;;
21527;SDS011;10925;49.102;-0.370;2023-04-25T03:46:17;20.73;;;3.40;;
21527;SDS011;10925;49.102;-0.370;2023-04-25T03:48:45;12.63;;;3.70;;
21527;SDS011;10925;49.102;-0.370;2023-04-25T03:51:18;15.60;;;3.20;;
21527;SDS011;10925;49.102;-0.370;2023-04-25T03:53:45;10.48;;;2.63;;
21527;SDS011;10925;49.102;-0.370;2023-04-25T03:56:34;7.40;;;2.70;;
21527;SDS011;10925;49.102;-0.370;2023-04-25T03:59:11;14.60;;;3.78;;
21527;SDS011;10925;49.102;-0.370;2023-04-25T04:01:38;12.75;;;3.38;;
21527;SDS011;10925;49.102;-0.370;2023-04-25T04:04:03;15.13;;;4.05;;
21527;SDS011;10925;49.102;-0.370;2023-04-25T04:06:31;11.45;;;3.58;;
21527;SDS011;10925;49.102;-0.370;2023-04-25T04:09:04;13.85;;;4.47;;
21527;SDS011;10925;49.102;-0.370;2023-04-25T04:11:34;19.75;;;4.18;;
21527;SDS011;10925;49.102;-0.370;2023-04-25T04:14:03;11.65;;;2.90;;
21527;SDS011;10925;49.102;-0.370;2023-04-25T04:16:29;9.15;;;2.88;;
21527;SDS011;10925;49.102;-0.370;2023-04-25T04:18:55;16.63;;;3.70;;
21527;SDS011;10925;49.102;-0.370;2023-04-25T04:21:22;13.93;;;3.92;;
21527;SDS011;10925;49.102;-0.370;2023-04-25T04:23:49;10.88;;;3.67;;
21527;SDS011;10925;49.102;-0.370;2023-04-25T04:26:17;16.20;;;4.03;;
21527;SDS011;10925;49.102;-0.370;2023-04-25T04:29:07;11.95;;;4.03;;
21527;SDS011;10925;49.102;-0.370;2023-04-25T04:31:34;12.75;;;3.83;;
21527;SDS011;10925;49.102;-0.370;2023-04-25T04:34:02;13.40;;;3.55;;
21527;SDS011;10925;49.102;-0.370;2023-04-25T04:36:29;12.82;;;3.22;;
21527;SDS011;10925;49.102;-0.370;2023-04-25T04:38:57;18.10;;;3.47;;
21527;SDS011;10925;49.102;-0.370;2023-04-25T04:41:51;15.65;;;3.83;;
21527;SDS011;10925;49.102;-0.370;2023-04-25T04:44:17;17.30;;;4.20;;
21527;SDS011;10925;49.102;-0.370;2023-04-25T04:47:02;15.40;;;4.72;;
21527;SDS011;10925;49.102;-0.370;2023-04-25T04:49:31;17.45;;;4.00;;
21527;SDS011;10925;49.102;-0.370;2023-04-25T04:52:08;20.45;;;4.97;;
21527;SDS011;10925;49.102;-0.370;2023-04-25T04:54:55;16.08;;;3.50;;
21527;SDS011;10925;49.102;-0.370;2023-04-25T04:57:22;15.80;;;3.55;;
21527;SDS011;10925;49.102;-0.370;2023-04-25T04:59:48;19.40;;;4.72;;
21527;SDS011;10925;49.102;-0.370;2023-04-25T05:02:41;17.23;;;4.30;;
21527;SDS011;10925;49.102;-0.370;2023-04-25T05:05:27;16.65;;;4.10;;
21527;SDS011;10925;49.102;-0.370;2023-04-25T05:07:53;14.57;;;4.00;;
21527;SDS011;10925;49.102;-0.370;2023-04-25T05:10:19;15.02;;;3.20;;
21527;SDS011;10925;49.102;-0.370;2023-04-25T05:12:44;11.18;;;3.65;;
21527;SDS011;10925;49.102;-0.370;2023-04-25T05:15:34;14.02;;;3.25;;
21527;SDS011;10925;49.102;-0.370;2023-04-25T05:18:01;12.93;;;3.63;;
21527;SDS011;10925;49.102;-0.370;2023-04-25T05:20:27;9.50;;;3.05;;
21527;SDS011;10925;49.102;-0.370;2023-04-25T05:22:56;13.77;;;3.58;;
21527;SDS011;10925;49.102;-0.370;2023-04-25T05:25:43;11.77;;;3.65;;
21527;SDS011;10925;49.102;-0.370;2023-04-25T05:28:36;9.95;;;3.55;;
21527;SDS011;10925;49.102;-0.370;2023-04-25T05:31:29;13.15;;;3.72;;
21527;SDS011;10925;49.102;-0.370;2023-04-25T05:33:55;14.63;;;4.40;;
21527;SDS011;10925;49.102;-0.370;2023-04-25T05:36:20;12.38;;;3.58;;
21527;SDS011;10925;49.102;-0.370;2023-04-25T05:38:48;19.13;;;3.90;;
21527;SDS011;10925;49.102;-0.370;2023-04-25T05:41:20;14.40;;;3.75;;
21527;SDS011;10925;49.102;-0.370;2023-04-25T05:43:47;14.25;;;3.50;;
21527;SDS011;10925;49.102;-0.370;2023-04-25T05:46:14;10.93;;;4.28;;
21527;SDS011;10925;49.102;-0.370;2023-04-25T05:49:02;15.77;;;3.70;;
21527;SDS011;10925;49.102;-0.370;2023-04-25T05:51:49;11.90;;;4.32;;
21527;SDS011;10925;49.102;-0.370;2023-04-25T05:54:15;15.52;;;4.38;;
21527;SDS011;10925;49.102;-0.370;2023-04-25T05:56:41;19.45;;;4.40;;
21527;SDS011;10925;49.102;-0.370;2023-04-25T05:59:07;13.40;;;4.50;;
21527;SDS011;10925;49.102;-0.370;2023-04-25T06:01:34;15.93;;;4.60;;
21527;SDS011;10925;49.102;-0.370;2023-04-25T06:04:00;11.35;;;4.35;;
21527;SDS011;10925;49.102;-0.370;2023-04-25T06:06:28;19.90;;;4.72;;
21527;SDS011;10925;49.102;-0.370;2023-04-25T06:08:57;16.77;;;3.40;;
21527;SDS011;10925;49.102;-0.370;2023-04-25T06:11:23;14.05;;;3.40;;
21527;SDS011;10925;49.102;-0.370;2023-04-25T06:13:48;16.48;;;4.28;;
21527;SDS011;10925;49.102;-0.370;2023-04-25T06:16:14;9.80;;;2.65;;
21527;SDS011;10925;49.102;-0.370;2023-04-25T06:18:41;16.23;;;3.80;;
21527;SDS011;10925;49.102;-0.370;2023-04-25T06:21:08;19.05;;;4.47;;
21527;SDS011;10925;49.102;-0.370;2023-04-25T06:23:34;13.70;;;4.32;;
21527;SDS011;10925;49.102;-0.370;2023-04-25T06:26:04;19.58;;;4.40;;
21527;SDS011;10925;49.102;-0.370;2023-04-25T06:28:32;11.98;;;3.67;;
21527;SDS011;10925;49.102;-0.370;2023-04-25T06:30:59;11.82;;;3.35;;
21527;SDS011;10925;49.102;-0.370;2023-04-25T06:33:26;24.05;;;3.13;;
21527;SDS011;10925;49.102;-0.370;2023-04-25T06:35:54;15.25;;;4.70;;
21527;SDS011;10925;49.102;-0.370;2023-04-25T06:38:19;14.18;;;4.25;;
21527;SDS011;10925;49.102;-0.370;2023-04-25T06:40:49;12.20;;;4.13;;
21527;SDS011;10925;49.102;-0.370;2023-04-25T06:43:17;14.82;;;3.63;;
21527;SDS011;10925;49.102;-0.370;2023-04-25T06:46:01;14.60;;;3.67;;
21527;SDS011;10925;49.102;-0.370;2023-04-25T06:48:26;14.48;;;4.40;;
21527;SDS011;10925;49.102;-0.370;2023-04-25T06:50:53;15.48;;;4.40;;
21527;SDS011;10925;49.102;-0.370;2023-04-25T06:53:20;15.30;;;3.97;;
21527;SDS011;10925;49.102;-0.370;2023-04-25T06:55:47;16.48;;;4.50;;
21527;SDS011;10925;49.102;-0.370;2023-04-25T06:58:12;16.63;;;4.93;;
21527;SDS011;10925;49.102;-0.370;2023-04-25T07:00:55;11.77;;;4.20;;
21527;SDS011;10925;49.102;-0.370;2023-04-25T07:03:24;18.15;;;4.97;;
21527;SDS011;10925;49.102;-0.370;2023-04-25T07:05:51;20.38;;;4.80;;
21527;SDS011;10925;49.102;-0.370;2023-04-25T07:08:18;16.08;;;3.88;;
21527;SDS011;10925;49.102;-0.370;2023-04-25T07:15:36;22.08;;;4.72;;
21527;SDS011;10925;49.102;-0.370;2023-04-25T07:18:04;16.65;;;4.90;;
21527;SDS011;10925;49.102;-0.370;2023-04-25T07:20:31;15.18;;;3.22;;
21527;SDS011;10925;49.102;-0.370;2023-04-25T07:23:00;24.83;;;4.20;;
21527;SDS011;10925;49.102;-0.370;2023-04-25T07:25:27;23.17;;;4.68;;
21527;SDS011;10925;49.102;-0.370;2023-04-25T07:27:54;14.63;;;3.55;;
21527;SDS011;10925;49.102;-0.370;2023-04-25T07:30:21;22.67;;;4.70;;
21527;SDS011;10925;49.102;-0.370;2023-04-25T07:32:48;28.70;;;4.47;;
21527;SDS011;10925;49.102;-0.370;2023-04-25T07:35:15;18.58;;;3.78;;
21527;SDS011;10925;49.102;-0.370;2023-04-25T07:37:41;24.25;;;5.32;;
21527;SDS011;10925;49.102;-0.370;2023-04-25T07:40:12;21.00;;;4.22;;
21527;SDS011;10925;49.102;-0.370;2023-04-25T07:42:38;19.58;;;3.00;;
21527;SDS011;10925;49.102;-0.370;2023-04-25T07:45:06;20.52;;;4.20;;
21527;SDS011;10925;49.102;-0.370;2023-04-25T07:47:33;19.60;;;3.72;;
21527;SDS011;10925;49.102;-0.370;2023-04-25T07:49:59;14.27;;;3.17;;
21527;SDS011;10925;49.102;-0.370;2023-04-25T07:52:27;20.23;;;4.65;;
21527;SDS011;10925;49.102;-0.370;2023-04-25T07:55:00;8.93;;;2.63;;
21527;SDS011;10925;49.102;-0.370;2023-04-25T07:57:26;15.82;;;4.38;;
21527;SDS011;10925;49.102;-0.370;2023-04-25T07:59:55;19.85;;;4.10;;
21527;SDS011;10925;49.102;-0.370;2023-04-25T08:02:22;18.88;;;3.30;;
21527;SDS011;10925;49.102;-0.370;2023-04-25T08:04:48;13.45;;;3.53;;
21527;SDS011;10925;49.102;-0.370;2023-04-25T08:07:17;11.93;;;2.92;;
21527;SDS011;10925;49.102;-0.370;2023-04-25T08:09:43;5.53;;;2.40;;
21527;SDS011;10925;49.102;-0.370;2023-04-25T08:12:10;15.40;;;3.08;;
21527;SDS011;10925;49.102;-0.370;2023-04-25T08:14:36;12.88;;;3.08;;
21527;SDS011;10925;49.102;-0.370;2023-04-25T08:17:04;17.45;;;4.20;;
21527;SDS011;10925;49.102;-0.370;2023-04-25T08:19:34;20.90;;;4.90;;
21527;SDS011;10925;49.102;-0.370;2023-04-25T08:22:01;14.45;;;4.32;;
21527;SDS011;10925;49.102;-0.370;2023-04-25T08:27:06;20.48;;;3.85;;
21527;SDS011;10925;49.102;-0.370;2023-04-25T08:29:34;14.82;;;3.22;;
21527;SDS011;10925;49.102;-0.370;2023-04-25T08:32:01;12.95;;;4.00;;
21527;SDS011;10925;49.102;-0.370;2023-04-25T08:34:29;18.23;;;3.60;;
21527;SDS011;10925;49.102;-0.370;2023-04-25T08:36:58;13.43;;;2.88;;
21527;SDS011;10925;49.102;-0.370;2023-04-25T08:39:37;19.08;;;3.53;;
21527;SDS011;10925;49.102;-0.370;2023-04-25T08:42:23;17.92;;;3.30;;
21527;SDS011;10925;49.102;-0.370;2023-04-25T08:44:51;18.95;;;3.45;;
21527;SDS011;10925;49.102;-0.370;2023-04-25T08:47:22;15.32;;;3.03;;
21527;SDS011;10925;49.102;-0.370;2023-04-25T08:49:48;11.52;;;2.58;;
21527;SDS011;10925;49.102;-0.370;2023-04-25T08:52:16;13.55;;;3.10;;
21527;SDS011;10925;49.102;-0.370;2023-04-25T08:54:45;25.50;;;4.72;;
21527;SDS011;10925;49.102;-0.370;2023-04-25T08:57:13;11.57;;;2.58;;
21527;SDS011;10925;49.102;-0.370;2023-04-25T08:59:41;24.23;;;4.03;;
21527;SDS011;10925;49.102;-0.370;2023-04-25T09:02:12;14.15;;;3.88;;
21527;SDS011;10925;49.102;-0.370;2023-04-25T09:04:44;17.00;;;3.88;;
21527;SDS011;10925;49.102;-0.370;2023-04-25T09:07:10;17.13;;;3.70;;
21527;SDS011;10925;49.102;-0.370;2023-04-25T09:09:38;9.55;;;2.85;;
21527;SDS011;10925;49.102;-0.370;2023-04-25T09:12:05;18.20;;;4.15;;
21527;SDS011;10925;49.102;-0.370;2023-04-25T09:14:31;15.55;;;3.60;;
21527;SDS011;10925;49.102;-0.370;2023-04-25T09:17:19;19.80;;;4.93;;
21527;SDS011;10925;49.102;-0.370;2023-04-25T09:19:50;15.38;;;3.70;;
21527;SDS011;10925;49.102;-0.370;2023-04-25T09:22:22;20.65;;;3.47;;
21527;SDS011;10925;49.102;-0.370;2023-04-25T09:24:48;14.63;;;2.85;;
21527;SDS011;10925;49.102;-0.370;2023-04-25T09:27:20;11.07;;;2.60;;
21527;SDS011;10925;49.102;-0.370;2023-04-25T09:29:58;16.67;;;3.40;;
21527;SDS011;10925;49.102;-0.370;2023-04-25T09:32:26;15.10;;;3.25;;
21527;SDS011;10925;49.102;-0.370;2023-04-25T09:34:56;13.27;;;3.03;;
21527;SDS011;10925;49.102;-0.370;2023-04-25T09:39:51;25.52;;;4.22;;
21527;SDS011;10925;49.102;-0.370;2023-04-25T09:42:18;18.25;;;4.07;;
21527;SDS011;10925;49.102;-0.370;2023-04-25T09:44:47;13.77;;;3.17;;
21527;SDS011;10925;49.102;-0.370;2023-04-25T09:47:15;16.00;;;3.78;;
21527;SDS011;10925;49.102;-0.370;2023-04-25T09:52:45;12.98;;;3.70;;
21527;SDS011;10925;49.102;-0.370;2023-04-25T09:55:30;17.40;;;3.92;;
21527;SDS011;10925;49.102;-0.370;2023-04-25T09:57:59;22.50;;;4.38;;
21527;SDS011;10925;49.102;-0.370;2023-04-25T10:00:27;18.27;;;3.35;;
21527;SDS011;10925;49.102;-0.370;2023-04-25T10:02:55;18.35;;;3.83;;
21527;SDS011;10925;49.102;-0.370;2023-04-25T10:05:48;15.05;;;3.47;;
21527;SDS011;10925;49.102;-0.370;2023-04-25T10:08:14;16.63;;;3.38;;
21527;SDS011;10925;49.102;-0.370;2023-04-25T10:10:42;14.43;;;3.15;;
21527;SDS011;10925;49.102;-0.370;2023-04-25T10:13:09;12.65;;;3.60;;
21527;SDS011;10925;49.102;-0.370;2023-04-25T10:15:37;16.38;;;3.53;;
21527;SDS011;10925;49.102;-0.370;2023-04-25T10:18:06;17.20;;;3.50;;
21527;SDS011;10925;49.102;-0.370;2023-04-25T10:20:33;15.57;;;3.97;;
21527;SDS011;10925;49.102;-0.370;2023-04-25T10:23:01;14.38;;;3.25;;
21527;SDS011;10925;49.102;-0.370;2023-04-25T10:25:30;12.70;;;3.30;;
21527;SDS011;10925;49.102;-0.370;2023-04-25T10:27:56;13.98;;;3.58;;
21527;SDS011;10925;49.102;-0.370;2023-04-25T10:33:33;17.02;;;4.05;;
21527;SDS011;10925;49.102;-0.370;2023-04-25T10:36:11;14.77;;;4.07;;
21527;SDS011;10925;49.102;-0.370;2023-04-25T10:38:38;19.65;;;4.07;;
21527;SDS011;10925;49.102;-0.370;2023-04-25T10:41:06;15.82;;;3.70;;
21527;SDS011;10925;49.102;-0.370;2023-04-25T10:43:41;13.95;;;3.53;;
21527;SDS011;10925;49.102;-0.370;2023-04-25T10:48:51;18.75;;;4.10;;
21527;SDS011;10925;49.102;-0.370;2023-04-25T10:53:57;13.40;;;3.42;;
21527;SDS011;10925;49.102;-0.370;2023-04-25T10:56:25;15.73;;;3.97;;
21527;SDS011;10925;49.102;-0.370;2023-04-25T11:01:40;13.73;;;3.72;;
21527;SDS011;10925;49.102;-0.370;2023-04-25T11:04:06;14.85;;;3.65;;
21527;SDS011;10925;49.102;-0.370;2023-04-25T11:06:37;18.52;;;4.30;;
21527;SDS011;10925;49.102;-0.370;2023-04-25T11:09:10;10.88;;;2.95;;
21527;SDS011;10925;49.102;-0.370;2023-04-25T11:11:38;20.85;;;3.53;;
21527;SDS011;10925;49.102;-0.370;2023-04-25T11:14:05;15.77;;;3.83;;
21527;SDS011;10925;49.102;-0.370;2023-04-25T11:16:31;11.82;;;3.80;;
21527;SDS011;10925;49.102;-0.370;2023-04-25T11:18:58;23.70;;;4.88;;
21527;SDS011;10925;49.102;-0.370;2023-04-25T11:21:25;13.85;;;3.72;;
21527;SDS011;10925;49.102;-0.370;2023-04-25T11:23:56;14.73;;;3.45;;
21527;SDS011;10925;49.102;-0.370;2023-04-25T11:26:23;15.45;;;3.92;;
21527;SDS011;10925;49.102;-0.370;2023-04-25T11:28:51;22.30;;;3.97;;
21527;SDS011;10925;49.102;-0.370;2023-04-25T11:31:20;16.02;;;3.63;;
21527;SDS011;10925;49.102;-0.370;2023-04-25T11:33:46;19.90;;;4.10;;
21527;SDS011;10925;49.102;-0.370;2023-04-25T11:36:13;15.77;;;3.38;;
21527;SDS011;10925;49.102;-0.370;2023-04-25T11:38:40;14.20;;;4.38;;
21527;SDS011;10925;49.102;-0.370;2023-04-25T11:41:07;14.57;;;3.60;;
21527;SDS011;10925;49.102;-0.370;2023-04-25T11:43:34;14.90;;;4.13;;
21527;SDS011;10925;49.102;-0.370;2023-04-25T11:46:00;18.90;;;3.88;;
21527;SDS011;10925;49.102;-0.370;2023-04-25T11:48:25;17.48;;;3.55;;
21527;SDS011;10925;49.102;-0.370;2023-04-25T11:50:53;17.20;;;4.07;;
21527;SDS011;10925;49.102;-0.370;2023-04-25T11:53:20;13.55;;;3.25;;
21527;SDS011;10925;49.102;-0.370;2023-04-25T11:55:47;16.20;;;3.50;;
21527;SDS011;10925;49.102;-0.370;2023-04-25T11:58:14;14.35;;;3.38;;
21527;SDS011;10925;49.102;-0.370;2023-04-25T12:00:41;14.35;;;3.60;;
21527;SDS011;10925;49.102;-0.370;2023-04-25T12:03:17;13.35;;;3.90;;
21527;SDS011;10925;49.102;-0.370;2023-04-25T12:05:44;14.07;;;3.67;;
21527;SDS011;10925;49.102;-0.370;2023-04-25T12:08:15;16.13;;;3.80;;
21527;SDS011;10925;49.102;-0.370;2023-04-25T12:10:43;18.55;;;3.97;;
21527;SDS011;10925;49.102;-0.370;2023-04-25T12:13:20;16.38;;;3.70;;
21527;SDS011;10925;49.102;-0.370;2023-04-25T12:15:46;14.45;;;4.63;;
21527;SDS011;10925;49.102;-0.370;2023-04-25T12:18:14;16.30;;;4.25;;
21527;SDS011;10925;49.102;-0.370;2023-04-25T12:20:41;17.58;;;3.63;;
21527;SDS011;10925;49.102;-0.370;2023-04-25T12:23:08;15.93;;;3.70;;
21527;SDS011;10925;49.102;-0.370;2023-04-25T12:30:57;19.70;;;3.97;;
21527;SDS011;10925;49.102;-0.370;2023-04-25T12:33:25;14.73;;;4.38;;
21527;SDS011;10925;49.102;-0.370;2023-04-25T12:35:53;13.43;;;3.88;;
21527;SDS011;10925;49.102;-0.370;2023-04-25T12:38:20;12.63;;;3.65;;
21527;SDS011;10925;49.102;-0.370;2023-04-25T12:40:47;13.73;;;4.25;;
21527;SDS011;10925;49.102;-0.370;2023-04-25T12:43:14;11.68;;;3.70;;
21527;SDS011;10925;49.102;-0.370;2023-04-25T12:45:40;12.75;;;3.75;;
21527;SDS011;10925;49.102;-0.370;2023-04-25T12:48:07;10.52;;;3.55;;
21527;SDS011;10925;49.102;-0.370;2023-04-25T12:50:34;18.65;;;4.30;;
21527;SDS011;10925;49.102;-0.370;2023-04-25T12:53:01;14.88;;;3.78;;
21527;SDS011;10925;49.102;-0.370;2023-04-25T12:55:27;12.50;;;3.00;;
21527;SDS011;10925;49.102;-0.370;2023-04-25T12:57:53;20.52;;;4.45;;
21527;SDS011;10925;49.102;-0.370;2023-04-25T13:00:18;15.27;;;4.18;;
21527;SDS011;10925;49.102;-0.370;2023-04-25T13:02:45;11.63;;;3.28;;
21527;SDS011;10925;49.102;-0.370;2023-04-25T13:05:12;17.58;;;3.58;;
21527;SDS011;10925;49.102;-0.370;2023-04-25T13:07:45;16.98;;;4.35;;
21527;SDS011;10925;49.102;-0.370;2023-04-25T13:10:12;14.07;;;3.90;;
21527;SDS011;10925;49.102;-0.370;2023-04-25T13:12:38;14.80;;;4.47;;
21527;SDS011;10925;49.102;-0.370;2023-04-25T13:15:05;16.17;;;4.18;;
21527;SDS011;10925;49.102;-0.370;2023-04-25T13:17:33;14.23;;;3.72;;
21527;SDS011;10925;49.102;-0.370;2023-04-25T13:20:00;17.70;;;4.13;;
21527;SDS011;10925;49.102;-0.370;2023-04-25T13:22:26;12.15;;;3.85;;
21527;SDS011;10925;49.102;-0.370;2023-04-25T13:24:53;18.73;;;4.18;;
21527;SDS011;10925;49.102;-0.370;2023-04-25T13:27:18;12.50;;;3.50;;
21527;SDS011;10925;49.102;-0.370;2023-04-25T13:29:45;11.48;;;2.95;;
21527;SDS011;10925;49.102;-0.370;2023-04-25T13:32:12;8.93;;;3.38;;
21527;SDS011;10925;49.102;-0.370;2023-04-25T13:34:39;10.05;;;2.97;;
21527;SDS011;10925;49.102;-0.370;2023-04-25T13:37:06;10.30;;;3.53;;
21527;SDS011;10925;49.102;-0.370;2023-04-25T13:39:32;12.48;;;3.42;;
21527;SDS011;10925;49.102;-0.370;2023-04-25T13:41:58;12.75;;;3.38;;
21527;SDS011;10925;49.102;-0.370;2023-04-25T13:44:24;15.80;;;2.92;;
21527;SDS011;10925;49.102;-0.370;2023-04-25T13:46:51;14.25;;;3.13;;
21527;SDS011;10925;49.102;-0.370;2023-04-25T13:49:18;13.85;;;4.03;;
21527;SDS011;10925;49.102;-0.370;2023-04-25T13:51:45;13.70;;;3.97;;
21527;SDS011;10925;49.102;-0.370;2023-04-25T13:54:11;10.55;;;2.65;;
21527;SDS011;10925;49.102;-0.370;2023-04-25T13:56:38;11.32;;;3.15;;
21527;SDS011;10925;49.102;-0.370;2023-04-25T13:59:05;11.60;;;3.40;;
21527;SDS011;10925;49.102;-0.370;2023-04-25T14:01:31;11.00;;;3.38;;
21527;SDS011;10925;49.102;-0.370;2023-04-25T14:03:59;9.50;;;2.65;;
21527;SDS011;10925;49.102;-0.370;2023-04-25T14:06:26;11.80;;;4.13;;
21527;SDS011;10925;49.102;-0.370;2023-04-25T14:08:56;9.52;;;3.10;;
21527;SDS011;10925;49.102;-0.370;2023-04-25T14:11:23;9.30;;;2.20;;
21527;SDS011;10925;49.102;-0.370;2023-04-25T14:13:49;10.27;;;3.40;;
21527;SDS011;10925;49.102;-0.370;2023-04-25T14:16:16;18.35;;;3.47;;
21527;SDS011;10925;49.102;-0.370;2023-04-25T14:18:43;16.17;;;2.58;;
21527;SDS011;10925;49.102;-0.370;2023-04-25T14:21:10;11.52;;;3.33;;
21527;SDS011;10925;49.102;-0.370;2023-04-25T14:23:37;9.27;;;3.10;;
21527;SDS011;10925;49.102;-0.370;2023-04-25T14:26:05;10.75;;;3.22;;
21527;SDS011;10925;49.102;-0.370;2023-04-25T14:28:32;13.40;;;3.05;;
21527;SDS011;10925;49.102;-0.370;2023-04-25T14:30:58;13.68;;;3.38;;
21527;SDS011;10925;49.102;-0.370;2023-04-25T14:33:24;9.82;;;2.70;;
21527;SDS011;10925;49.102;-0.370;2023-04-25T14:35:50;12.85;;;2.72;;
21527;SDS011;10925;49.102;-0.370;2023-04-25T14:38:16;8.05;;;2.47;;
21527;SDS011;10925;49.102;-0.370;2023-04-25T14:40:43;17.70;;;3.33;;
21527;SDS011;10925;49.102;-0.370;2023-04-25T14:43:10;8.05;;;2.50;;
21527;SDS011;10925;49.102;-0.370;2023-04-25T14:45:37;12.85;;;3.40;;
21527;SDS011;10925;49.102;-0.370;2023-04-25T14:48:02;12.38;;;2.75;;
21527;SDS011;10925;49.102;-0.370;2023-04-25T14:50:29;6.80;;;2.03;;
21527;SDS011;10925;49.102;-0.370;2023-04-25T14:52:56;13.25;;;3.08;;
21527;SDS011;10925;49.102;-0.370;2023-04-25T14:55:25;12.80;;;3.00;;
21527;SDS011;10925;49.102;-0.370;2023-04-25T14:57:53;7.25;;;2.08;;
21527;SDS011;10925;49.102;-0.370;2023-04-25T15:00:22;7.90;;;2.38;;
21527;SDS011;10925;49.102;-0.370;2023-04-25T15:02:48;15.68;;;2.83;;
21527;SDS011;10925;49.102;-0.370;2023-04-25T15:05:15;6.38;;;1.92;;
21527;SDS011;10925;49.102;-0.370;2023-04-25T15:07:42;11.63;;;3.22;;